createdAt,value
2018-01-24T00:00:57.341Z,18.60
2018-01-24T00:03:26.033Z,15.87
2018-01-24T00:05:53.662Z,12.57
2018-01-24T00:08:21.386Z,16.13
2018-01-24T00:10:49.058Z,17.20
2018-01-24T00:13:16.846Z,16.20
2018-01-24T00:15:44.571Z,21.87
2018-01-24T00:18:12.393Z,17.93
2018-01-24T00:20:40.019Z,19.23
2018-01-24T00:23:07.922Z,16.00
2018-01-24T00:25:35.666Z,17.93
2018-01-24T00:28:03.400Z,13.40
2018-01-24T00:30:31.741Z,12.53
2018-01-24T00:32:59.854Z,20.00
2018-01-24T00:35:27.646Z,15.60
2018-01-24T00:37:55.341Z,14.60
2018-01-24T00:40:23.038Z,16.30
2018-01-24T00:42:50.865Z,13.90
2018-01-24T00:45:19.268Z,15.43
2018-01-24T00:47:47.813Z,16.90
2018-01-24T00:50:15.430Z,18.50
2018-01-24T00:52:43.209Z,17.20
2018-01-24T00:55:10.811Z,19.70
2018-01-24T00:57:38.424Z,16.90
2018-01-24T01:00:06.250Z,17.80
2018-01-24T01:02:33.971Z,18.80
2018-01-24T01:05:01.464Z,20.83
2018-01-24T01:07:29.194Z,25.40
2018-01-24T01:09:56.938Z,16.07
2018-01-24T01:12:25.542Z,18.40
2018-01-24T01:14:53.280Z,19.60
2018-01-24T01:17:21.825Z,21.30
2018-01-24T01:19:49.541Z,19.43
2018-01-24T01:22:17.185Z,16.33
2018-01-24T01:24:45.260Z,19.30
2018-01-24T01:27:12.909Z,17.27
2018-01-24T01:29:40.729Z,15.10
2018-01-24T01:32:09.114Z,16.40
2018-01-24T01:34:36.782Z,17.47
2018-01-24T01:37:04.577Z,18.23
2018-01-24T01:39:32.499Z,13.30
2018-01-24T01:42:00.234Z,17.33
2018-01-24T01:44:28.620Z,22.93
2018-01-24T01:46:56.375Z,15.10
2018-01-24T01:49:24.964Z,20.90
2018-01-24T01:51:53.493Z,20.00
2018-01-24T01:54:21.278Z,17.43
2018-01-24T01:56:49.195Z,19.30
2018-01-24T01:59:16.754Z,22.87
2018-01-24T02:01:44.452Z,16.60
2018-01-24T02:04:12.021Z,19.27
2018-01-24T02:06:39.677Z,17.27
2018-01-24T02:09:07.406Z,21.70
2018-01-24T02:11:36.796Z,19.27
2018-01-24T02:14:05.246Z,16.80
2018-01-24T02:16:33.005Z,23.77
2018-01-24T02:19:00.627Z,20.10
2018-01-24T02:21:28.283Z,16.20
2018-01-24T02:23:55.999Z,15.33
2018-01-24T02:26:24.509Z,19.93
2018-01-24T02:28:52.985Z,17.43
2018-01-24T02:31:21.464Z,19.83
2018-01-24T02:33:50.052Z,19.60
2018-01-24T02:36:17.857Z,28.70
2018-01-24T02:38:57.275Z,16.97
2018-01-24T02:41:24.882Z,19.13
2018-01-24T02:43:52.675Z,21.60
2018-01-24T02:46:20.246Z,16.37
2018-01-24T02:48:48.355Z,19.63
2018-01-24T02:51:16.019Z,18.43
2018-01-24T02:53:44.653Z,19.20
2018-01-24T02:56:12.302Z,18.93
2018-01-24T02:58:40.222Z,20.20
2018-01-24T03:01:07.911Z,20.00
2018-01-24T03:03:35.655Z,18.33
2018-01-24T03:06:03.312Z,17.73
2018-01-24T03:08:31.402Z,16.67
2018-01-24T03:10:59.251Z,18.50
2018-01-24T03:13:26.962Z,24.13
2018-01-24T03:15:54.747Z,18.90
2018-01-24T03:18:22.681Z,17.90
2018-01-24T03:20:50.342Z,19.40
2018-01-24T03:23:17.986Z,16.90
2018-01-24T03:25:45.830Z,17.10
2018-01-24T03:28:13.694Z,18.20
2018-01-24T03:30:41.369Z,16.77
2018-01-24T03:33:08.995Z,16.63
2018-01-24T03:35:36.684Z,20.17
2018-01-24T03:38:04.368Z,21.80
2018-01-24T03:40:32.065Z,20.30
2018-01-24T03:42:59.776Z,25.00
2018-01-24T03:45:28.557Z,18.20
2018-01-24T03:47:57.040Z,22.23
2018-01-24T03:50:25.505Z,29.13
2018-01-24T03:52:53.332Z,25.83
2018-01-24T03:55:21.068Z,19.60
2018-01-24T03:57:48.667Z,25.10
2018-01-24T04:00:16.401Z,22.13
2018-01-24T04:02:44.043Z,24.27
2018-01-24T04:05:12.605Z,18.73
2018-01-24T04:07:40.412Z,22.73
2018-01-24T04:10:08.058Z,21.13
2018-01-24T04:12:36.608Z,18.03
2018-01-24T04:15:04.375Z,24.07
2018-01-24T04:17:32.034Z,21.63
2018-01-24T04:19:59.746Z,26.80
2018-01-24T04:22:27.429Z,21.30
2018-01-24T04:24:55.473Z,28.80
2018-01-24T04:27:23.937Z,22.53
2018-01-24T04:29:52.181Z,26.53
2018-01-24T04:32:19.696Z,22.97
2018-01-24T04:34:47.405Z,26.57
2018-01-24T04:37:14.952Z,23.60
2018-01-24T04:39:42.745Z,18.77
2018-01-24T04:42:10.378Z,24.07
2018-01-24T04:44:38.086Z,21.13
2018-01-24T04:47:06.474Z,20.37
2018-01-24T04:49:34.128Z,21.70
2018-01-24T04:52:01.910Z,24.83
2018-01-24T04:54:29.669Z,18.83
2018-01-24T04:56:58.260Z,17.27
2018-01-24T04:59:26.771Z,19.13
2018-01-24T05:01:54.673Z,17.60
2018-01-24T05:04:22.352Z,15.27
2018-01-24T05:06:50.212Z,24.43
2018-01-24T05:09:18.005Z,18.87
2018-01-24T05:11:46.451Z,23.80
2018-01-24T05:14:14.098Z,21.53
2018-01-24T05:16:42.645Z,18.53
2018-01-24T05:19:10.365Z,22.83
2018-01-24T05:21:38.135Z,18.93
2018-01-24T05:24:05.959Z,25.50
2018-01-24T05:26:33.667Z,24.70
2018-01-24T05:29:01.415Z,19.13
2018-01-24T05:31:29.074Z,19.30
2018-01-24T05:33:56.771Z,16.20
2018-01-24T05:36:25.271Z,20.07
2018-01-24T05:38:53.023Z,19.47
2018-01-24T05:41:21.460Z,16.17
2018-01-24T05:43:49.031Z,19.80
2018-01-24T05:46:16.650Z,16.80
2018-01-24T05:48:44.466Z,17.53
2018-01-24T05:51:12.018Z,16.83
2018-01-24T05:53:39.623Z,18.30
2018-01-24T05:56:08.242Z,20.90
2018-01-24T05:58:35.926Z,15.13
2018-01-24T06:01:03.652Z,15.90
2018-01-24T06:03:31.365Z,17.03
2018-01-24T06:05:59.329Z,14.83
2018-01-24T06:08:27.011Z,11.90
2018-01-24T06:10:54.718Z,13.30
2018-01-24T06:13:22.478Z,13.43
2018-01-24T06:15:50.168Z,9.30
2018-01-24T06:18:18.024Z,13.10
2018-01-24T06:20:45.721Z,9.80
2018-01-24T06:23:13.446Z,9.03
2018-01-24T06:25:41.131Z,9.67
2018-01-24T06:28:08.910Z,12.80
2018-01-24T06:30:36.555Z,8.47
2018-01-24T06:33:04.925Z,6.80
2018-01-24T06:35:32.768Z,8.10
2018-01-24T06:38:00.391Z,7.60
2018-01-24T06:40:27.991Z,7.47
2018-01-24T06:42:55.622Z,5.90
2018-01-24T06:45:23.357Z,14.63
2018-01-24T06:47:51.157Z,5.70
2018-01-24T06:50:18.895Z,6.70
2018-01-24T06:52:46.561Z,8.43
2018-01-24T06:55:14.367Z,10.00
2018-01-24T06:57:42.906Z,8.60
2018-01-24T07:00:10.676Z,6.63
2018-01-24T07:02:38.481Z,6.03
2018-01-24T07:05:06.968Z,7.20
2018-01-24T07:07:34.653Z,5.70
2018-01-24T07:10:02.511Z,7.47
2018-01-24T07:15:50.822Z,5.30
2018-01-24T07:18:18.808Z,5.83
2018-01-24T07:20:46.407Z,6.23
2018-01-24T07:23:14.001Z,4.13
2018-01-24T07:25:41.803Z,4.40
2018-01-24T07:28:09.521Z,3.87
2018-01-24T07:30:37.168Z,3.97
2018-01-24T07:33:04.997Z,4.23
2018-01-24T07:35:32.691Z,4.80
2018-01-24T07:38:00.340Z,4.60
2018-01-24T07:40:28.092Z,4.50
2018-01-24T07:42:56.877Z,4.50
2018-01-24T07:45:24.554Z,3.13
2018-01-24T07:47:52.242Z,5.00
2018-01-24T07:50:20.043Z,3.83
2018-01-24T07:52:47.654Z,3.27
2018-01-24T07:55:15.353Z,2.77
2018-01-24T07:57:42.997Z,3.43
2018-01-24T08:00:10.716Z,4.60
2018-01-24T08:02:38.551Z,3.17
2018-01-24T08:05:06.439Z,4.03
2018-01-24T08:07:34.157Z,3.10
2018-01-24T08:10:02.060Z,3.27
2018-01-24T08:12:29.850Z,3.10
2018-01-24T08:14:57.756Z,2.53
2018-01-24T08:17:25.592Z,3.87
2018-01-24T08:19:53.978Z,3.13
2018-01-24T08:22:22.458Z,4.07
2018-01-24T08:24:50.127Z,3.23
2018-01-24T08:27:17.930Z,3.53
2018-01-24T08:29:47.158Z,5.50
2018-01-24T08:32:14.795Z,3.93
2018-01-24T08:34:43.329Z,4.27
2018-01-24T08:37:11.815Z,3.03
2018-01-24T08:39:40.165Z,2.97
2018-01-24T08:42:07.899Z,2.90
2018-01-24T08:44:35.716Z,2.60
2018-01-24T08:47:04.423Z,4.57
2018-01-24T08:49:32.192Z,4.53
2018-01-24T08:51:59.998Z,2.83
2018-01-24T08:54:27.740Z,2.27
2018-01-24T08:56:55.607Z,2.50
2018-01-24T08:59:23.346Z,4.60
2018-01-24T09:02:09.188Z,2.17
2018-01-24T09:04:54.467Z,1.67
2018-01-24T09:07:41.213Z,12.77
2018-01-24T09:10:27.066Z,2.00
2018-01-24T09:13:12.183Z,2.10
2018-01-24T09:15:58.101Z,2.37
2018-01-24T09:18:43.270Z,7.13
2018-01-24T09:21:28.567Z,2.07
2018-01-24T09:24:17.282Z,1.60
2018-01-24T09:26:44.942Z,3.50
2018-01-24T09:29:13.508Z,1.70
2018-01-24T09:31:41.984Z,1.83
2018-01-24T09:34:09.701Z,1.60
2018-01-24T09:36:37.324Z,2.50
2018-01-24T09:39:05.793Z,3.30
2018-01-24T09:41:33.533Z,1.70
2018-01-24T09:44:01.186Z,1.57
2018-01-24T09:46:28.896Z,3.43
2018-01-24T09:48:56.610Z,2.30
2018-01-24T09:51:24.330Z,1.50
2018-01-24T09:53:52.759Z,1.93
2018-01-24T09:56:21.791Z,1.90
2018-01-24T09:58:49.562Z,1.80
2018-01-24T10:01:18.044Z,2.10
2018-01-24T10:03:46.502Z,1.90
2018-01-24T10:06:14.111Z,4.60
2018-01-24T10:08:41.716Z,1.50
2018-01-24T10:11:09.438Z,1.43
2018-01-24T10:13:37.242Z,3.20
2018-01-24T10:16:04.906Z,1.43
2018-01-24T10:18:33.537Z,1.70
2018-01-24T10:21:02.118Z,1.83
2018-01-24T10:23:30.651Z,1.77
2018-01-24T10:25:58.411Z,1.27
2018-01-24T10:28:26.122Z,1.33
2018-01-24T10:30:53.813Z,1.33
2018-01-24T10:33:21.606Z,3.50
2018-01-24T10:35:49.213Z,8.50
2018-01-24T10:38:17.670Z,1.13
2018-01-24T10:40:45.283Z,1.20
2018-01-24T10:43:13.042Z,1.10
2018-01-24T10:45:40.842Z,1.67
2018-01-24T10:48:08.757Z,1.63
2018-01-24T10:50:37.183Z,1.00
2018-01-24T10:53:04.955Z,1.27
2018-01-24T10:55:32.578Z,2.27
2018-01-24T10:58:00.331Z,1.00
2018-01-24T11:00:28.084Z,1.20
2018-01-24T11:02:55.914Z,1.43
2018-01-24T11:05:23.553Z,1.00
2018-01-24T11:07:51.265Z,1.17
2018-01-24T11:10:18.883Z,0.80
2018-01-24T11:12:46.597Z,0.90
2018-01-24T11:15:14.199Z,1.33
2018-01-24T11:17:41.963Z,0.80
2018-01-24T11:20:09.627Z,0.90
2018-01-24T11:22:37.251Z,0.90
2018-01-24T11:25:04.988Z,0.90
2018-01-24T11:27:32.602Z,0.90
2018-01-24T11:30:00.271Z,1.27
2018-01-24T11:32:28.151Z,0.90
2018-01-24T11:34:55.771Z,0.90
2018-01-24T11:37:23.610Z,0.90
2018-01-24T11:39:51.340Z,1.20
2018-01-24T11:42:19.134Z,1.20
2018-01-24T11:44:46.832Z,0.80
2018-01-24T11:47:14.528Z,1.20
2018-01-24T11:49:42.261Z,0.90
2018-01-24T11:52:09.802Z,1.00
2018-01-24T11:54:37.433Z,0.80
2018-01-24T11:57:05.111Z,1.10
2018-01-24T11:59:32.782Z,1.00
2018-01-24T12:02:00.356Z,0.80
2018-01-24T12:04:27.999Z,0.87
2018-01-24T12:06:56.012Z,0.90
2018-01-24T12:09:24.485Z,2.77
2018-01-24T12:11:52.229Z,1.10
2018-01-24T12:14:19.899Z,1.00
2018-01-24T12:16:47.634Z,1.20
2018-01-24T12:19:15.307Z,0.90
2018-01-24T12:21:43.060Z,0.80
2018-01-24T12:24:10.809Z,0.80
2018-01-24T12:26:38.523Z,1.33
2018-01-24T12:29:06.297Z,1.07
2018-01-24T12:31:33.954Z,1.00
2018-01-24T12:34:01.682Z,1.47
2018-01-24T12:36:29.356Z,0.80
2018-01-24T12:38:57.049Z,1.03
2018-01-24T12:41:24.778Z,0.90
2018-01-24T12:43:52.468Z,2.20
2018-01-24T12:46:20.109Z,1.87
2018-01-24T12:48:47.836Z,1.30
2018-01-24T12:51:15.394Z,1.43
2018-01-24T12:53:43.284Z,0.80
2018-01-24T12:56:10.938Z,2.83
2018-01-24T12:58:38.616Z,0.90
2018-01-24T13:01:06.409Z,0.90
2018-01-24T13:03:34.201Z,1.33
2018-01-24T13:06:02.664Z,1.00
2018-01-24T13:08:30.459Z,0.80
2018-01-24T13:10:58.143Z,1.20
2018-01-24T13:13:26.041Z,0.80
2018-01-24T13:15:53.724Z,1.00
2018-01-24T13:18:21.281Z,1.10
2018-01-24T13:20:49.009Z,1.00
2018-01-24T13:23:16.986Z,2.70
2018-01-24T13:25:44.618Z,1.37
2018-01-24T13:28:13.429Z,0.90
2018-01-24T13:30:41.164Z,0.80
2018-01-24T13:33:09.603Z,0.80
2018-01-24T13:35:37.501Z,1.10
2018-01-24T13:38:05.970Z,1.00
2018-01-24T13:40:33.540Z,1.40
2018-01-24T13:43:01.206Z,0.80
2018-01-24T13:45:28.870Z,1.10
2018-01-24T13:47:56.558Z,1.57
2018-01-24T13:50:24.304Z,0.90
2018-01-24T13:52:52.930Z,0.90
2018-01-24T13:55:20.572Z,2.43
2018-01-24T13:57:48.341Z,1.10
2018-01-24T14:00:16.741Z,1.37
2018-01-24T14:02:44.373Z,0.90
2018-01-24T14:05:12.011Z,2.70
2018-01-24T14:07:40.134Z,1.90
2018-01-24T14:10:07.652Z,0.90
2018-01-24T14:12:36.196Z,1.07
2018-01-24T14:15:03.955Z,2.30
2018-01-24T14:17:31.515Z,0.70
2018-01-24T14:19:59.276Z,0.87
2018-01-24T14:25:01.045Z,2.93
2018-01-24T14:27:28.844Z,1.00
2018-01-24T14:29:56.634Z,0.80
2018-01-24T14:32:25.029Z,1.30
2018-01-24T14:34:52.690Z,1.00
2018-01-24T14:37:20.358Z,1.87
2018-01-24T14:39:48.093Z,1.00
2018-01-24T14:42:16.593Z,0.87
2018-01-24T14:44:45.015Z,0.90
2018-01-24T14:47:12.836Z,10.73
2018-01-24T14:49:41.252Z,0.90
2018-01-24T14:52:08.995Z,2.40
2018-01-24T14:54:36.644Z,1.30
2018-01-24T14:57:05.166Z,1.00
2018-01-24T14:59:33.909Z,0.90
2018-01-24T15:02:01.553Z,3.03
2018-01-24T15:04:29.227Z,3.87
2018-01-24T15:06:56.840Z,0.90
2018-01-24T15:09:24.507Z,0.90
2018-01-24T15:11:52.191Z,1.27
2018-01-24T15:14:20.050Z,1.00
2018-01-24T15:16:47.674Z,3.40
2018-01-24T15:19:15.655Z,6.97
2018-01-24T15:21:43.265Z,3.67
2018-01-24T15:24:10.909Z,1.40
2018-01-24T15:26:38.539Z,1.20
2018-01-24T15:29:06.238Z,1.20
2018-01-24T15:31:35.000Z,1.63
2018-01-24T15:34:02.542Z,1.10
2018-01-24T15:36:30.305Z,1.20
2018-01-24T15:38:58.084Z,2.60
2018-01-24T15:41:25.738Z,0.90
2018-01-24T15:43:53.504Z,6.20
2018-01-24T15:46:21.227Z,1.10
2018-01-24T15:48:49.047Z,4.10
2018-01-24T15:51:16.809Z,1.37
2018-01-24T15:53:44.548Z,3.77
2018-01-24T15:56:12.218Z,4.07
2018-01-24T15:58:39.938Z,1.10
2018-01-24T16:01:07.577Z,3.83
2018-01-24T16:03:35.293Z,1.27
2018-01-24T16:06:03.901Z,1.53
2018-01-24T16:08:31.563Z,2.23
2018-01-24T16:10:59.343Z,1.37
2018-01-24T16:13:27.045Z,1.53
2018-01-24T16:15:55.006Z,1.33
2018-01-24T16:18:22.687Z,3.87
2018-01-24T16:20:50.394Z,9.13
2018-01-24T16:23:18.051Z,1.50
2018-01-24T16:25:45.802Z,0.90
2018-01-24T16:28:14.316Z,1.50
2018-01-24T16:30:41.913Z,1.37
2018-01-24T16:33:09.586Z,1.73
2018-01-24T16:35:37.432Z,2.73
2018-01-24T16:38:05.210Z,1.20
2018-01-24T16:40:33.196Z,1.80
2018-01-24T16:43:01.800Z,2.43
2018-01-24T16:45:30.268Z,2.17
2018-01-24T16:47:58.776Z,1.73
2018-01-24T16:50:26.456Z,1.33
2018-01-24T16:52:54.147Z,2.43
2018-01-24T16:55:21.765Z,1.27
2018-01-24T16:57:49.501Z,1.20
2018-01-24T17:00:18.095Z,1.13
2018-01-24T17:02:46.557Z,2.90
2018-01-24T17:05:14.318Z,2.00
2018-01-24T17:07:42.039Z,5.50
2018-01-24T17:10:09.695Z,2.70
2018-01-24T17:12:37.380Z,1.20
2018-01-24T17:15:05.243Z,2.07
2018-01-24T17:17:33.061Z,1.23
2018-01-24T17:20:01.490Z,1.30
2018-01-24T17:22:29.569Z,1.73
2018-01-24T17:24:57.232Z,2.20
2018-01-24T17:27:24.948Z,2.53
2018-01-24T17:29:52.520Z,4.30
2018-01-24T17:32:20.220Z,1.60
2018-01-24T17:34:47.872Z,1.20
2018-01-24T17:37:15.607Z,2.57
2018-01-24T17:39:43.249Z,1.10
2018-01-24T17:42:11.784Z,1.10
2018-01-24T17:44:39.417Z,9.50
2018-01-24T17:47:07.119Z,13.93
2018-01-24T17:49:34.825Z,1.27
2018-01-24T17:52:02.664Z,2.53
2018-01-24T17:54:30.391Z,2.10
2018-01-24T17:56:58.174Z,1.03
2018-01-24T17:59:25.752Z,7.60
2018-01-24T18:01:53.557Z,1.07
2018-01-24T18:04:21.223Z,2.83
2018-01-24T18:06:49.041Z,1.23
2018-01-24T18:09:16.787Z,3.83
2018-01-24T18:11:44.438Z,1.70
2018-01-24T18:14:12.217Z,1.30
2018-01-24T18:16:39.894Z,1.80
2018-01-24T18:19:07.747Z,1.43
2018-01-24T18:21:35.513Z,4.40
2018-01-24T18:24:03.230Z,1.77
2018-01-24T18:26:31.646Z,5.00
2018-01-24T18:28:59.587Z,2.30
2018-01-24T18:31:27.403Z,2.43
2018-01-24T18:33:55.073Z,3.20
2018-01-24T18:36:22.757Z,2.30
2018-01-24T18:38:50.583Z,1.10
2018-01-24T18:41:18.254Z,1.33
2018-01-24T18:43:45.862Z,5.53
2018-01-24T18:46:13.600Z,3.63
2018-01-24T18:48:44.432Z,6.17
2018-01-24T18:51:12.265Z,1.40
2018-01-24T18:53:39.899Z,1.30
2018-01-24T18:56:08.314Z,1.90
2018-01-24T18:58:36.091Z,1.30
2018-01-24T19:01:03.913Z,1.40
2018-01-24T19:03:31.639Z,2.77
2018-01-24T19:05:59.460Z,0.97
2018-01-24T19:08:27.116Z,6.70
2018-01-24T19:10:54.743Z,1.30
2018-01-24T19:13:22.477Z,3.20
2018-01-24T19:15:50.136Z,2.43
2018-01-24T19:18:17.678Z,1.40
2018-01-24T19:20:45.443Z,4.10
2018-01-24T19:23:13.098Z,1.33
2018-01-24T19:25:40.849Z,1.80
2018-01-24T19:28:09.584Z,1.10
2018-01-24T19:30:37.239Z,2.50
2018-01-24T19:33:05.008Z,11.63
2018-01-24T19:35:32.685Z,1.43
2018-01-24T19:38:00.399Z,2.50
2018-01-24T19:40:28.167Z,1.70
2018-01-24T19:42:55.856Z,5.90
2018-01-24T19:45:23.571Z,2.23
2018-01-24T19:47:51.545Z,4.13
2018-01-24T19:50:20.247Z,1.63
2018-01-24T19:52:48.154Z,1.83
2018-01-24T19:55:16.903Z,3.50
2018-01-24T19:57:44.621Z,2.40
2018-01-24T20:00:13.220Z,2.23
2018-01-24T20:02:41.151Z,1.70
2018-01-24T20:05:08.900Z,2.40
2018-01-24T20:07:36.616Z,1.87
2018-01-24T20:10:04.375Z,6.80
2018-01-24T20:12:32.261Z,5.70
2018-01-24T20:15:00.173Z,2.07
2018-01-24T20:17:28.030Z,2.47
2018-01-24T20:19:55.989Z,3.03
2018-01-24T20:22:24.606Z,1.40
2018-01-24T20:24:52.286Z,4.13
2018-01-24T20:27:20.170Z,2.73
2018-01-24T20:29:47.870Z,3.20
2018-01-24T20:32:15.587Z,3.00
2018-01-24T20:34:43.210Z,4.33
2018-01-24T20:37:10.871Z,1.90
2018-01-24T20:39:38.818Z,2.90
2018-01-24T20:42:07.326Z,3.13
2018-01-24T20:44:35.143Z,2.10
2018-01-24T20:47:03.110Z,7.13
2018-01-24T20:49:31.604Z,10.00
2018-01-24T20:52:00.503Z,10.27
2018-01-24T20:54:29.173Z,3.20
2018-01-24T20:56:57.275Z,2.10
2018-01-24T20:59:25.002Z,4.90
2018-01-24T21:01:52.698Z,3.80
2018-01-24T21:04:20.344Z,2.40
2018-01-24T21:06:48.008Z,2.87
2018-01-24T21:09:15.835Z,2.17
2018-01-24T21:11:43.441Z,3.13
2018-01-24T21:14:11.863Z,3.47
2018-01-24T21:16:39.669Z,2.23
2018-01-24T21:19:07.277Z,3.10
2018-01-24T21:21:34.897Z,3.13
2018-01-24T21:24:02.643Z,2.87
2018-01-24T21:26:30.113Z,5.23
2018-01-24T21:29:23.214Z,4.97
2018-01-24T21:32:02.362Z,2.63
2018-01-24T21:34:41.609Z,3.80
2018-01-24T21:37:09.079Z,2.50
2018-01-24T21:39:36.637Z,2.00
2018-01-24T21:42:04.095Z,4.67
2018-01-24T21:44:31.663Z,2.90
2018-01-24T21:46:59.139Z,4.87
2018-01-24T21:49:26.589Z,3.40
2018-01-24T21:51:54.057Z,6.50
2018-01-24T21:54:21.511Z,2.33
2018-01-24T21:56:48.985Z,2.77
2018-01-24T21:59:16.645Z,3.20
2018-01-24T22:01:44.096Z,3.27
2018-01-24T22:04:12.337Z,1.00
2018-01-24T22:06:39.808Z,0.90
2018-01-24T22:09:07.263Z,2.03
2018-01-24T22:11:34.753Z,2.00
2018-01-24T22:14:02.979Z,1.10
2018-01-24T22:16:30.429Z,1.93
2018-01-24T22:18:57.910Z,1.30
2018-01-24T22:21:25.390Z,0.80
2018-01-24T22:23:52.845Z,0.80
2018-01-24T22:26:20.307Z,0.90
2018-01-24T22:28:47.897Z,0.70
2018-01-24T22:31:15.380Z,0.80
2018-01-24T22:33:42.875Z,2.87
2018-01-24T22:36:10.342Z,1.00
2018-01-24T22:38:37.793Z,1.17
2018-01-24T22:41:05.276Z,1.73
2018-01-24T22:43:33.500Z,2.93
2018-01-24T22:46:00.953Z,1.70
2018-01-24T22:48:28.449Z,2.70
2018-01-24T22:50:55.921Z,4.40
2018-01-24T22:53:23.381Z,1.73
2018-01-24T22:55:50.854Z,1.30
2018-01-24T22:58:18.428Z,0.97
2018-01-24T23:00:45.898Z,2.27
2018-01-24T23:03:13.390Z,1.10
2018-01-24T23:05:40.853Z,1.50
2018-01-24T23:08:08.325Z,0.90
2018-01-24T23:10:35.803Z,1.93
2018-01-24T23:13:03.259Z,1.50
2018-01-24T23:15:30.746Z,1.20
2018-01-24T23:17:58.209Z,2.50
2018-01-24T23:20:25.673Z,1.40
2018-01-24T23:22:53.167Z,6.60
2018-01-24T23:25:23.491Z,1.40
2018-01-24T23:27:51.014Z,2.10
2018-01-24T23:30:18.485Z,3.00
2018-01-24T23:32:45.933Z,2.00
2018-01-24T23:35:13.409Z,2.27
2018-01-24T23:37:40.865Z,3.10
2018-01-24T23:40:08.361Z,2.63
2018-01-24T23:42:35.834Z,2.60
2018-01-24T23:45:03.311Z,2.53
2018-01-24T23:47:30.786Z,3.60
2018-01-24T23:49:58.291Z,6.70
2018-01-24T23:52:26.528Z,3.73
2018-01-24T23:54:53.981Z,1.90
2018-01-24T23:57:21.460Z,1.93
2018-01-24T23:59:48.938Z,1.73
